Port Lincoln Aerodrome, Australia
Current Conditions -  °F | °C
As of 5:00 PM on Wednesday 22 Oct 2014 (Local Time) from YWHA Reporting Station
Clear Clear  
Wind Chill: 75°   Ceiling: Unl
Heat Index: 75°   Visibility: 6mi
Dew Point: 57°   Wind: 18mph
Humidity: 53%   Direction: 180°S
Pressure: 30.03"   Gusts: NA
Location:  34.6°S, 135.87°E
Report Text: YWHA 220700Z AUTO 18016KT 9999 // NCD 24/14 Q1017
Loading
Personal Weather Stations






























Interactive Weather Map
Tropical Storm Tracking
New forecast layout! Learn more

10-Day Weather Forecast

Advertisements
Track Severe Weather on mobile